sensor_id;sensor_type;location;lat;lon;timestamp;P1;durP1;ratioP1;P2;durP2;ratioP2
23400;SDS011;11873;49.300;8.920;2023-01-26T00:02:36;15.50;;;9.97;;
23400;SDS011;11873;49.300;8.920;2023-01-26T00:07:36;15.27;;;9.37;;
23400;SDS011;11873;49.300;8.920;2023-01-26T00:12:37;15.70;;;10.37;;
23400;SDS011;11873;49.300;8.920;2023-01-26T00:17:37;16.77;;;10.33;;
23400;SDS011;11873;49.300;8.920;2023-01-26T00:22:37;15.97;;;10.03;;
23400;SDS011;11873;49.300;8.920;2023-01-26T00:27:37;16.97;;;10.10;;
23400;SDS011;11873;49.300;8.920;2023-01-26T00:32:37;16.97;;;10.03;;
23400;SDS011;11873;49.300;8.920;2023-01-26T00:37:40;14.40;;;10.83;;
23400;SDS011;11873;49.300;8.920;2023-01-26T00:42:40;16.70;;;10.20;;
23400;SDS011;11873;49.300;8.920;2023-01-26T00:47:40;18.27;;;10.70;;
23400;SDS011;11873;49.300;8.920;2023-01-26T00:52:40;17.07;;;10.73;;
23400;SDS011;11873;49.300;8.920;2023-01-26T00:57:40;15.80;;;10.87;;
23400;SDS011;11873;49.300;8.920;2023-01-26T01:02:43;15.17;;;10.30;;
23400;SDS011;11873;49.300;8.920;2023-01-26T01:07:43;15.43;;;10.80;;
23400;SDS011;11873;49.300;8.920;2023-01-26T01:12:44;17.43;;;11.13;;
23400;SDS011;11873;49.300;8.920;2023-01-26T01:17:44;16.10;;;10.50;;
23400;SDS011;11873;49.300;8.920;2023-01-26T01:22:44;15.30;;;10.90;;
23400;SDS011;11873;49.300;8.920;2023-01-26T01:27:44;17.13;;;10.50;;
23400;SDS011;11873;49.300;8.920;2023-01-26T01:32:44;15.57;;;10.97;;
23400;SDS011;11873;49.300;8.920;2023-01-26T01:37:45;15.60;;;10.70;;
23400;SDS011;11873;49.300;8.920;2023-01-26T01:42:46;14.30;;;10.03;;
23400;SDS011;11873;49.300;8.920;2023-01-26T01:47:46;14.50;;;10.60;;
23400;SDS011;11873;49.300;8.920;2023-01-26T01:52:46;16.00;;;10.27;;
23400;SDS011;11873;49.300;8.920;2023-01-26T01:57:54;13.93;;;10.13;;
23400;SDS011;11873;49.300;8.920;2023-01-26T02:07:54;15.63;;;10.43;;
23400;SDS011;11873;49.300;8.920;2023-01-26T02:12:55;16.57;;;10.57;;
23400;SDS011;11873;49.300;8.920;2023-01-26T02:17:55;15.80;;;10.37;;
23400;SDS011;11873;49.300;8.920;2023-01-26T02:28:16;13.37;;;9.67;;
23400;SDS011;11873;49.300;8.920;2023-01-26T02:33:17;14.80;;;10.53;;
23400;SDS011;11873;49.300;8.920;2023-01-26T02:38:18;15.20;;;10.90;;
23400;SDS011;11873;49.300;8.920;2023-01-26T02:43:18;14.83;;;10.07;;
23400;SDS011;11873;49.300;8.920;2023-01-26T02:48:19;15.73;;;10.15;;
23400;SDS011;11873;49.300;8.920;2023-01-26T02:53:19;15.80;;;10.47;;
23400;SDS011;11873;49.300;8.920;2023-01-26T02:58:19;15.90;;;11.70;;
23400;SDS011;11873;49.300;8.920;2023-01-26T03:03:21;15.40;;;10.77;;
23400;SDS011;11873;49.300;8.920;2023-01-26T03:08:22;17.23;;;9.93;;
23400;SDS011;11873;49.300;8.920;2023-01-26T03:13:22;12.37;;;9.00;;
23400;SDS011;11873;49.300;8.920;2023-01-26T03:18:22;15.33;;;9.07;;
23400;SDS011;11873;49.300;8.920;2023-01-26T03:23:22;15.23;;;10.77;;
23400;SDS011;11873;49.300;8.920;2023-01-26T03:28:23;15.33;;;10.30;;
23400;SDS011;11873;49.300;8.920;2023-01-26T03:33:23;16.20;;;10.60;;
23400;SDS011;11873;49.300;8.920;2023-01-26T03:38:23;15.30;;;9.63;;
23400;SDS011;11873;49.300;8.920;2023-01-26T03:43:23;14.67;;;10.13;;
23400;SDS011;11873;49.300;8.920;2023-01-26T03:48:24;14.87;;;10.47;;
23400;SDS011;11873;49.300;8.920;2023-01-26T03:53:24;13.03;;;9.67;;
23400;SDS011;11873;49.300;8.920;2023-01-26T03:58:24;14.30;;;10.07;;
23400;SDS011;11873;49.300;8.920;2023-01-26T04:03:24;17.47;;;10.97;;
23400;SDS011;11873;49.300;8.920;2023-01-26T04:08:24;14.03;;;9.53;;
23400;SDS011;11873;49.300;8.920;2023-01-26T04:13:25;15.33;;;10.27;;
23400;SDS011;11873;49.300;8.920;2023-01-26T04:18:25;17.63;;;12.00;;
23400;SDS011;11873;49.300;8.920;2023-01-26T04:23:25;15.30;;;10.07;;
23400;SDS011;11873;49.300;8.920;2023-01-26T04:28:25;20.17;;;11.07;;
23400;SDS011;11873;49.300;8.920;2023-01-26T04:33:25;15.40;;;9.93;;
23400;SDS011;11873;49.300;8.920;2023-01-26T04:38:25;14.10;;;10.30;;
23400;SDS011;11873;49.300;8.920;2023-01-26T04:43:26;15.57;;;10.60;;
23400;SDS011;11873;49.300;8.920;2023-01-26T04:48:27;13.60;;;9.20;;
23400;SDS011;11873;49.300;8.920;2023-01-26T04:53:27;14.17;;;9.13;;
23400;SDS011;11873;49.300;8.920;2023-01-26T04:58:27;12.33;;;9.03;;
23400;SDS011;11873;49.300;8.920;2023-01-26T05:03:27;13.63;;;9.43;;
23400;SDS011;11873;49.300;8.920;2023-01-26T05:08:27;13.47;;;9.53;;
23400;SDS011;11873;49.300;8.920;2023-01-26T05:13:28;12.03;;;9.27;;
23400;SDS011;11873;49.300;8.920;2023-01-26T05:18:28;13.13;;;9.07;;
23400;SDS011;11873;49.300;8.920;2023-01-26T05:23:28;11.30;;;7.93;;
23400;SDS011;11873;49.300;8.920;2023-01-26T05:28:28;12.33;;;9.27;;
23400;SDS011;11873;49.300;8.920;2023-01-26T05:33:28;13.27;;;9.03;;
23400;SDS011;11873;49.300;8.920;2023-01-26T05:38:29;13.37;;;9.33;;
23400;SDS011;11873;49.300;8.920;2023-01-26T05:43:29;11.87;;;8.33;;
23400;SDS011;11873;49.300;8.920;2023-01-26T05:48:29;12.37;;;8.97;;
23400;SDS011;11873;49.300;8.920;2023-01-26T05:53:29;11.93;;;9.00;;
23400;SDS011;11873;49.300;8.920;2023-01-26T05:58:29;15.80;;;9.40;;
23400;SDS011;11873;49.300;8.920;2023-01-26T06:03:29;13.13;;;8.40;;
23400;SDS011;11873;49.300;8.920;2023-01-26T06:08:30;11.90;;;8.47;;
23400;SDS011;11873;49.300;8.920;2023-01-26T06:13:30;15.60;;;9.30;;
23400;SDS011;11873;49.300;8.920;2023-01-26T06:18:30;13.33;;;9.27;;
23400;SDS011;11873;49.300;8.920;2023-01-26T06:23:30;15.33;;;9.70;;
23400;SDS011;11873;49.300;8.920;2023-01-26T06:28:30;13.70;;;9.43;;
23400;SDS011;11873;49.300;8.920;2023-01-26T06:33:31;14.90;;;9.40;;
23400;SDS011;11873;49.300;8.920;2023-01-26T06:38:32;15.23;;;9.67;;
23400;SDS011;11873;49.300;8.920;2023-01-26T06:43:33;20.20;;;12.93;;
23400;SDS011;11873;49.300;8.920;2023-01-26T06:48:34;12.90;;;10.00;;
23400;SDS011;11873;49.300;8.920;2023-01-26T06:53:37;15.43;;;9.67;;
23400;SDS011;11873;49.300;8.920;2023-01-26T06:58:37;13.40;;;9.77;;
23400;SDS011;11873;49.300;8.920;2023-01-26T07:03:38;12.57;;;7.40;;
23400;SDS011;11873;49.300;8.920;2023-01-26T07:08:38;9.53;;;7.23;;
23400;SDS011;11873;49.300;8.920;2023-01-26T07:13:39;10.20;;;6.95;;
23400;SDS011;11873;49.300;8.920;2023-01-26T07:18:39;13.30;;;9.40;;
23400;SDS011;11873;49.300;8.920;2023-01-26T07:23:39;14.17;;;9.57;;
23400;SDS011;11873;49.300;8.920;2023-01-26T07:28:40;14.23;;;9.67;;
23400;SDS011;11873;49.300;8.920;2023-01-26T07:33:40;13.23;;;9.97;;
23400;SDS011;11873;49.300;8.920;2023-01-26T07:38:40;14.47;;;9.80;;
23400;SDS011;11873;49.300;8.920;2023-01-26T07:43:40;13.47;;;8.73;;
23400;SDS011;11873;49.300;8.920;2023-01-26T07:48:40;12.47;;;8.47;;
23400;SDS011;11873;49.300;8.920;2023-01-26T07:53:41;8.57;;;6.30;;
23400;SDS011;11873;49.300;8.920;2023-01-26T07:58:41;12.13;;;8.93;;
23400;SDS011;11873;49.300;8.920;2023-01-26T08:03:41;10.73;;;7.73;;
23400;SDS011;11873;49.300;8.920;2023-01-26T08:08:42;11.30;;;7.30;;
23400;SDS011;11873;49.300;8.920;2023-01-26T08:13:42;12.77;;;7.87;;
23400;SDS011;11873;49.300;8.920;2023-01-26T08:18:43;17.13;;;11.87;;
23400;SDS011;11873;49.300;8.920;2023-01-26T08:23:47;13.00;;;7.50;;
23400;SDS011;11873;49.300;8.920;2023-01-26T08:28:47;10.47;;;7.60;;
23400;SDS011;11873;49.300;8.920;2023-01-26T08:33:48;9.67;;;6.90;;
23400;SDS011;11873;49.300;8.920;2023-01-26T08:38:49;11.27;;;7.47;;
23400;SDS011;11873;49.300;8.920;2023-01-26T08:43:49;11.27;;;7.37;;
23400;SDS011;11873;49.300;8.920;2023-01-26T08:48:49;12.33;;;8.07;;
23400;SDS011;11873;49.300;8.920;2023-01-26T08:53:49;9.90;;;7.00;;
23400;SDS011;11873;49.300;8.920;2023-01-26T08:58:49;10.57;;;7.23;;
23400;SDS011;11873;49.300;8.920;2023-01-26T09:03:50;10.47;;;7.40;;
23400;SDS011;11873;49.300;8.920;2023-01-26T09:08:50;12.57;;;7.53;;
23400;SDS011;11873;49.300;8.920;2023-01-26T09:13:50;12.33;;;7.43;;
23400;SDS011;11873;49.300;8.920;2023-01-26T09:18:51;10.27;;;7.07;;
23400;SDS011;11873;49.300;8.920;2023-01-26T09:23:51;10.50;;;7.50;;
23400;SDS011;11873;49.300;8.920;2023-01-26T09:28:51;9.13;;;6.43;;
23400;SDS011;11873;49.300;8.920;2023-01-26T09:33:52;37.37;;;23.57;;
23400;SDS011;11873;49.300;8.920;2023-01-26T09:38:52;16.30;;;11.40;;
23400;SDS011;11873;49.300;8.920;2023-01-26T09:44:03;12.87;;;9.13;;
23400;SDS011;11873;49.300;8.920;2023-01-26T09:54:50;11.13;;;7.47;;
23400;SDS011;11873;49.300;8.920;2023-01-26T09:59:29;9.70;;;6.87;;
23400;SDS011;11873;49.300;8.920;2023-01-26T10:04:33;8.80;;;6.53;;
23400;SDS011;11873;49.300;8.920;2023-01-26T10:09:35;11.27;;;8.00;;
23400;SDS011;11873;49.300;8.920;2023-01-26T10:14:43;11.00;;;7.30;;
23400;SDS011;11873;49.300;8.920;2023-01-26T10:19:44;10.33;;;7.20;;
23400;SDS011;11873;49.300;8.920;2023-01-26T10:24:47;9.23;;;6.40;;
23400;SDS011;11873;49.300;8.920;2023-01-26T10:29:48;8.97;;;6.50;;
23400;SDS011;11873;49.300;8.920;2023-01-26T10:34:48;11.40;;;8.20;;
23400;SDS011;11873;49.300;8.920;2023-01-26T10:44:57;9.57;;;7.00;;
23400;SDS011;11873;49.300;8.920;2023-01-26T10:50:31;10.53;;;6.70;;
23400;SDS011;11873;49.300;8.920;2023-01-26T10:55:24;12.53;;;7.00;;
23400;SDS011;11873;49.300;8.920;2023-01-26T11:00:31;11.43;;;7.37;;
23400;SDS011;11873;49.300;8.920;2023-01-26T11:05:35;6.10;;;4.93;;
23400;SDS011;11873;49.300;8.920;2023-01-26T11:10:36;7.53;;;5.30;;
23400;SDS011;11873;49.300;8.920;2023-01-26T11:15:38;8.37;;;5.77;;
23400;SDS011;11873;49.300;8.920;2023-01-26T11:20:59;6.97;;;4.77;;
23400;SDS011;11873;49.300;8.920;2023-01-26T11:36:05;6.40;;;5.30;;
23400;SDS011;11873;49.300;8.920;2023-01-26T11:51:19;5.13;;;3.93;;
23400;SDS011;11873;49.300;8.920;2023-01-26T11:56:26;5.40;;;4.17;;
23400;SDS011;11873;49.300;8.920;2023-01-26T12:01:32;4.57;;;3.43;;
23400;SDS011;11873;49.300;8.920;2023-01-26T12:06:41;4.40;;;3.63;;
23400;SDS011;11873;49.300;8.920;2023-01-26T12:11:44;4.37;;;3.70;;
23400;SDS011;11873;49.300;8.920;2023-01-26T12:17:10;7.40;;;4.00;;
23400;SDS011;11873;49.300;8.920;2023-01-26T12:27:37;6.20;;;4.30;;
23400;SDS011;11873;49.300;8.920;2023-01-26T12:32:41;5.63;;;3.83;;
23400;SDS011;11873;49.300;8.920;2023-01-26T12:37:46;6.22;;;4.55;;
23400;SDS011;11873;49.300;8.920;2023-01-26T12:42:54;7.37;;;3.63;;
23400;SDS011;11873;49.300;8.920;2023-01-26T12:58:04;4.20;;;3.33;;
23400;SDS011;11873;49.300;8.920;2023-01-26T13:03:16;3.37;;;3.00;;
23400;SDS011;11873;49.300;8.920;2023-01-26T13:13:30;4.27;;;3.63;;
23400;SDS011;11873;49.300;8.920;2023-01-26T13:18:50;4.03;;;3.63;;
23400;SDS011;11873;49.300;8.920;2023-01-26T13:23:51;4.27;;;3.87;;
23400;SDS011;11873;49.300;8.920;2023-01-26T13:28:51;4.07;;;3.67;;
23400;SDS011;11873;49.300;8.920;2023-01-26T13:33:51;4.47;;;3.20;;
23400;SDS011;11873;49.300;8.920;2023-01-26T13:38:57;4.13;;;3.67;;
23400;SDS011;11873;49.300;8.920;2023-01-26T13:44:09;6.83;;;3.33;;
23400;SDS011;11873;49.300;8.920;2023-01-26T13:49:23;4.70;;;4.23;;
23400;SDS011;11873;49.300;8.920;2023-01-26T13:54:23;4.90;;;3.70;;
23400;SDS011;11873;49.300;8.920;2023-01-26T13:59:24;3.47;;;3.00;;
23400;SDS011;11873;49.300;8.920;2023-01-26T14:04:26;3.93;;;3.57;;
23400;SDS011;11873;49.300;8.920;2023-01-26T14:09:27;4.30;;;3.70;;
23400;SDS011;11873;49.300;8.920;2023-01-26T14:14:34;4.33;;;3.50;;
23400;SDS011;11873;49.300;8.920;2023-01-26T14:19:38;4.80;;;3.80;;
23400;SDS011;11873;49.300;8.920;2023-01-26T14:24:38;9.67;;;6.23;;
23400;SDS011;11873;49.300;8.920;2023-01-26T14:29:39;9.40;;;6.00;;
23400;SDS011;11873;49.300;8.920;2023-01-26T14:34:49;10.43;;;4.53;;
23400;SDS011;11873;49.300;8.920;2023-01-26T14:40:08;3.30;;;3.00;;
23400;SDS011;11873;49.300;8.920;2023-01-26T14:45:12;3.63;;;3.33;;
23400;SDS011;11873;49.300;8.920;2023-01-26T14:50:14;6.77;;;4.03;;
23400;SDS011;11873;49.300;8.920;2023-01-26T14:55:31;5.13;;;3.77;;
23400;SDS011;11873;49.300;8.920;2023-01-26T15:00:33;3.27;;;2.80;;
23400;SDS011;11873;49.300;8.920;2023-01-26T15:05:37;3.73;;;3.33;;
23400;SDS011;11873;49.300;8.920;2023-01-26T15:10:39;5.10;;;3.57;;
23400;SDS011;11873;49.300;8.920;2023-01-26T15:15:43;8.53;;;7.27;;
23400;SDS011;11873;49.300;8.920;2023-01-26T15:25:50;8.83;;;6.77;;
23400;SDS011;11873;49.300;8.920;2023-01-26T15:30:53;7.00;;;6.40;;
23400;SDS011;11873;49.300;8.920;2023-01-26T15:35:57;7.30;;;6.60;;
23400;SDS011;11873;49.300;8.920;2023-01-26T15:40:57;7.40;;;6.60;;
23400;SDS011;11873;49.300;8.920;2023-01-26T15:45:57;7.90;;;6.70;;
23400;SDS011;11873;49.300;8.920;2023-01-26T15:50:57;8.50;;;6.70;;
23400;SDS011;11873;49.300;8.920;2023-01-26T15:55:57;7.67;;;6.83;;
23400;SDS011;11873;49.300;8.920;2023-01-26T16:00:57;7.77;;;6.93;;
23400;SDS011;11873;49.300;8.920;2023-01-26T16:05:58;9.53;;;7.27;;
23400;SDS011;11873;49.300;8.920;2023-01-26T16:10:58;9.93;;;7.20;;
23400;SDS011;11873;49.300;8.920;2023-01-26T16:15:58;10.73;;;8.57;;
23400;SDS011;11873;49.300;8.920;2023-01-26T16:20:58;8.17;;;7.20;;
23400;SDS011;11873;49.300;8.920;2023-01-26T16:25:58;9.27;;;8.27;;
23400;SDS011;11873;49.300;8.920;2023-01-26T16:30:59;10.77;;;9.20;;
23400;SDS011;11873;49.300;8.920;2023-01-26T16:36:00;10.63;;;8.40;;
23400;SDS011;11873;49.300;8.920;2023-01-26T16:41:00;8.07;;;7.27;;
23400;SDS011;11873;49.300;8.920;2023-01-26T16:46:00;8.63;;;7.73;;
23400;SDS011;11873;49.300;8.920;2023-01-26T16:51:01;10.20;;;8.50;;
23400;SDS011;11873;49.300;8.920;2023-01-26T16:56:10;8.60;;;7.07;;
23400;SDS011;11873;49.300;8.920;2023-01-26T17:01:20;5.40;;;4.47;;
23400;SDS011;11873;49.300;8.920;2023-01-26T17:06:21;6.00;;;5.40;;
23400;SDS011;11873;49.300;8.920;2023-01-26T17:11:23;4.73;;;4.33;;
23400;SDS011;11873;49.300;8.920;2023-01-26T17:16:24;5.63;;;4.87;;
23400;SDS011;11873;49.300;8.920;2023-01-26T17:21:24;6.87;;;5.43;;
23400;SDS011;11873;49.300;8.920;2023-01-26T17:26:25;4.80;;;4.30;;
23400;SDS011;11873;49.300;8.920;2023-01-26T17:31:25;7.70;;;5.63;;
23400;SDS011;11873;49.300;8.920;2023-01-26T17:36:25;5.17;;;4.67;;
23400;SDS011;11873;49.300;8.920;2023-01-26T17:41:25;5.73;;;5.17;;
23400;SDS011;11873;49.300;8.920;2023-01-26T17:46:26;5.43;;;4.93;;
23400;SDS011;11873;49.300;8.920;2023-01-26T17:51:26;6.90;;;5.47;;
23400;SDS011;11873;49.300;8.920;2023-01-26T17:56:26;5.97;;;4.97;;
23400;SDS011;11873;49.300;8.920;2023-01-26T18:01:26;5.40;;;4.87;;
23400;SDS011;11873;49.300;8.920;2023-01-26T18:06:26;7.77;;;6.97;;
23400;SDS011;11873;49.300;8.920;2023-01-26T18:11:27;12.03;;;7.87;;
23400;SDS011;11873;49.300;8.920;2023-01-26T18:16:27;6.80;;;6.17;;
23400;SDS011;11873;49.300;8.920;2023-01-26T18:21:28;7.83;;;7.03;;
23400;SDS011;11873;49.300;8.920;2023-01-26T18:26:29;7.33;;;6.33;;
23400;SDS011;11873;49.300;8.920;2023-01-26T18:31:34;7.53;;;6.57;;
23400;SDS011;11873;49.300;8.920;2023-01-26T18:36:34;8.03;;;6.60;;
23400;SDS011;11873;49.300;8.920;2023-01-26T18:41:35;8.47;;;6.87;;
23400;SDS011;11873;49.300;8.920;2023-01-26T18:46:35;7.70;;;6.83;;
23400;SDS011;11873;49.300;8.920;2023-01-26T18:51:35;10.27;;;7.90;;
23400;SDS011;11873;49.300;8.920;2023-01-26T18:56:35;10.13;;;8.93;;
23400;SDS011;11873;49.300;8.920;2023-01-26T19:01:36;8.37;;;7.53;;
23400;SDS011;11873;49.300;8.920;2023-01-26T19:06:36;8.40;;;7.43;;
23400;SDS011;11873;49.300;8.920;2023-01-26T19:11:37;9.17;;;7.97;;
23400;SDS011;11873;49.300;8.920;2023-01-26T19:16:37;11.03;;;8.70;;
23400;SDS011;11873;49.300;8.920;2023-01-26T19:21:37;9.27;;;8.33;;
23400;SDS011;11873;49.300;8.920;2023-01-26T19:26:37;10.77;;;8.60;;
23400;SDS011;11873;49.300;8.920;2023-01-26T19:31:38;9.30;;;8.20;;
23400;SDS011;11873;49.300;8.920;2023-01-26T19:36:38;12.83;;;10.27;;
23400;SDS011;11873;49.300;8.920;2023-01-26T19:41:38;14.00;;;10.23;;
23400;SDS011;11873;49.300;8.920;2023-01-26T19:46:39;11.87;;;9.53;;
23400;SDS011;11873;49.300;8.920;2023-01-26T19:51:39;13.50;;;9.23;;
23400;SDS011;11873;49.300;8.920;2023-01-26T19:56:39;11.80;;;8.83;;
23400;SDS011;11873;49.300;8.920;2023-01-26T20:01:39;9.50;;;7.97;;
23400;SDS011;11873;49.300;8.920;2023-01-26T20:06:39;7.40;;;6.67;;
23400;SDS011;11873;49.300;8.920;2023-01-26T20:11:40;8.10;;;7.10;;
23400;SDS011;11873;49.300;8.920;2023-01-26T20:16:40;7.93;;;6.97;;
23400;SDS011;11873;49.300;8.920;2023-01-26T20:21:40;10.03;;;8.20;;
23400;SDS011;11873;49.300;8.920;2023-01-26T20:26:41;11.63;;;7.77;;
23400;SDS011;11873;49.300;8.920;2023-01-26T20:31:41;14.30;;;10.17;;
23400;SDS011;11873;49.300;8.920;2023-01-26T20:36:42;10.00;;;7.30;;
23400;SDS011;11873;49.300;8.920;2023-01-26T20:41:42;8.93;;;7.43;;
23400;SDS011;11873;49.300;8.920;2023-01-26T20:46:42;10.40;;;7.57;;
23400;SDS011;11873;49.300;8.920;2023-01-26T20:51:43;7.13;;;6.43;;
23400;SDS011;11873;49.300;8.920;2023-01-26T20:56:43;9.30;;;7.23;;
23400;SDS011;11873;49.300;8.920;2023-01-26T21:01:43;6.73;;;5.77;;
23400;SDS011;11873;49.300;8.920;2023-01-26T21:06:44;8.10;;;6.90;;
23400;SDS011;11873;49.300;8.920;2023-01-26T21:11:44;6.43;;;5.83;;
23400;SDS011;11873;49.300;8.920;2023-01-26T21:16:44;6.17;;;5.07;;
23400;SDS011;11873;49.300;8.920;2023-01-26T21:21:44;6.63;;;5.30;;
23400;SDS011;11873;49.300;8.920;2023-01-26T21:26:44;6.07;;;5.47;;
23400;SDS011;11873;49.300;8.920;2023-01-26T21:31:45;6.53;;;5.67;;
23400;SDS011;11873;49.300;8.920;2023-01-26T21:36:45;5.80;;;5.27;;
23400;SDS011;11873;49.300;8.920;2023-01-26T21:41:45;7.13;;;6.10;;
23400;SDS011;11873;49.300;8.920;2023-01-26T21:46:46;6.10;;;5.50;;
23400;SDS011;11873;49.300;8.920;2023-01-26T21:51:46;5.77;;;5.20;;
23400;SDS011;11873;49.300;8.920;2023-01-26T21:56:47;7.87;;;5.93;;
23400;SDS011;11873;49.300;8.920;2023-01-26T22:01:51;6.70;;;5.40;;
23400;SDS011;11873;49.300;8.920;2023-01-26T22:06:52;7.17;;;5.47;;
23400;SDS011;11873;49.300;8.920;2023-01-26T22:11:53;6.30;;;5.13;;
23400;SDS011;11873;49.300;8.920;2023-01-26T22:16:53;5.97;;;5.30;;
23400;SDS011;11873;49.300;8.920;2023-01-26T22:21:53;7.57;;;6.00;;
23400;SDS011;11873;49.300;8.920;2023-01-26T22:26:53;6.23;;;5.33;;
23400;SDS011;11873;49.300;8.920;2023-01-26T22:31:53;8.63;;;5.60;;
23400;SDS011;11873;49.300;8.920;2023-01-26T22:36:53;8.17;;;5.63;;
23400;SDS011;11873;49.300;8.920;2023-01-26T22:41:54;6.17;;;5.57;;
23400;SDS011;11873;49.300;8.920;2023-01-26T22:46:54;6.43;;;5.70;;
23400;SDS011;11873;49.300;8.920;2023-01-26T22:51:54;6.50;;;5.07;;
23400;SDS011;11873;49.300;8.920;2023-01-26T22:56:54;6.50;;;5.60;;
23400;SDS011;11873;49.300;8.920;2023-01-26T23:01:54;7.83;;;6.17;;
23400;SDS011;11873;49.300;8.920;2023-01-26T23:06:54;8.97;;;6.23;;
23400;SDS011;11873;49.300;8.920;2023-01-26T23:11:54;6.90;;;5.80;;
23400;SDS011;11873;49.300;8.920;2023-01-26T23:16:55;9.10;;;6.50;;
23400;SDS011;11873;49.300;8.920;2023-01-26T23:21:55;9.30;;;6.60;;
23400;SDS011;11873;49.300;8.920;2023-01-26T23:26:56;8.73;;;6.90;;
23400;SDS011;11873;49.300;8.920;2023-01-26T23:31:56;8.43;;;6.40;;
23400;SDS011;11873;49.300;8.920;2023-01-26T23:36:56;9.10;;;6.97;;
23400;SDS011;11873;49.300;8.920;2023-01-26T23:41:56;9.03;;;6.20;;
23400;SDS011;11873;49.300;8.920;2023-01-26T23:46:56;8.30;;;6.80;;
23400;SDS011;11873;49.300;8.920;2023-01-26T23:51:56;10.53;;;6.07;;
23400;SDS011;11873;49.300;8.920;2023-01-26T23:56:56;9.20;;;6.37;;
